Time;durP1;ratioP1;P1;durP2;ratioP2;P2;SDS_P1;SDS_P2;PMS_P1;PMS_P2;Temp;Humidity;BMP_temperature;BMP_pressure;BME280_temperature;BME280_humidity;BME280_pressure;Samples;Min_cycle;Max_cycle;Signal;HPM_P1;HPM_P2
2023/12/20 00:02:14;;;;;;;16.10;2.10;;;;;;;;;;5017818;28;20045;-82
2023/12/20 00:04:41;;;;;;;5.07;1.15;;;;;;;;;;5018217;28;20136;-82
2023/12/20 00:07:08;;;;;;;9.15;1.40;;;;;;;;;;5034028;28;20055;-82
2023/12/20 00:09:35;;;;;;;5.93;1.48;;;;;;;;;;5034900;28;20044;-82
2023/12/20 00:12:02;;;;;;;8.15;1.08;;;;;;;;;;5034552;28;20376;-82
2023/12/20 00:14:29;;;;;;;5.97;1.42;;;;;;;;;;5018324;28;20116;-82
2023/12/20 00:16:55;;;;;;;8.45;1.58;;;;;;;;;;5018344;28;20041;-81
2023/12/20 00:19:22;;;;;;;9.32;1.40;;;;;;;;;;5017777;28;20037;-82
2023/12/20 00:21:49;;;;;;;16.92;1.50;;;;;;;;;;5019695;28;20051;-82
2023/12/20 00:24:16;;;;;;;8.88;1.73;;;;;;;;;;5026437;28;20049;-81
2023/12/20 00:26:43;;;;;;;6.10;1.27;;;;;;;;;;5028977;28;20044;-82
2023/12/20 00:29:10;;;;;;;10.73;1.50;;;;;;;;;;5031314;28;20056;-82
2023/12/20 00:31:36;;;;;;;11.20;1.23;;;;;;;;;;5022499;28;20102;-82
2023/12/20 00:34:03;;;;;;;11.85;1.50;;;;;;;;;;5034082;28;20115;-80
2023/12/20 00:36:30;;;;;;;9.05;1.55;;;;;;;;;;5017875;28;20045;-81
2023/12/20 00:38:57;;;;;;;9.13;1.70;;;;;;;;;;5018122;28;20037;-82
2023/12/20 00:41:23;;;;;;;12.02;1.27;;;;;;;;;;5017615;28;20453;-82
2023/12/20 00:43:50;;;;;;;15.95;1.40;;;;;;;;;;5017885;28;20052;-82
2023/12/20 00:46:17;;;;;;;10.82;2.05;;;;;;;;;;5017322;28;20129;-81
2023/12/20 00:48:45;;;;;;;11.10;1.42;;;;;;;;;;5017804;28;20049;-81
2023/12/20 00:51:12;;;;;;;12.95;1.38;;;;;;;;;;5018324;28;20041;-81
2023/12/20 00:53:39;;;;;;;14.05;1.70;;;;;;;;;;5005361;28;20498;-81
2023/12/20 00:56:06;;;;;;;12.98;1.88;;;;;;;;;;5020938;28;20072;-82
2023/12/20 00:58:33;;;;;;;13.45;1.38;;;;;;;;;;5038080;28;20048;-81
2023/12/20 01:00:59;;;;;;;12.68;1.92;;;;;;;;;;5021465;28;20120;-81
2023/12/20 01:03:26;;;;;;;13.10;2.03;;;;;;;;;;5020546;28;20045;-81
2023/12/20 01:05:53;;;;;;;9.45;1.50;;;;;;;;;;5021405;28;20045;-82
2023/12/20 01:08:20;;;;;;;11.93;1.90;;;;;;;;;;5021093;28;20094;-81
2023/12/20 01:10:46;;;;;;;14.15;2.05;;;;;;;;;;5037354;28;20048;-82
2023/12/20 01:13:14;;;;;;;13.32;1.73;;;;;;;;;;5020647;28;20059;-81
2023/12/20 01:15:41;;;;;;;12.82;1.92;;;;;;;;;;5021400;28;20037;-80
2023/12/20 01:18:08;;;;;;;15.85;1.98;;;;;;;;;;5020544;28;20073;-81
2023/12/20 01:20:36;;;;;;;17.45;1.70;;;;;;;;;;5037609;28;20049;-81
2023/12/20 01:23:03;;;;;;;18.17;1.88;;;;;;;;;;5037546;28;20048;-82
2023/12/20 01:25:29;;;;;;;21.95;2.90;;;;;;;;;;5020587;28;20444;-82
2023/12/20 01:27:56;;;;;;;18.50;2.80;;;;;;;;;;5021026;28;20480;-82
2023/12/20 01:30:24;;;;;;;14.23;2.10;;;;;;;;;;5020164;28;20041;-82
2023/12/20 01:32:51;;;;;;;12.35;1.60;;;;;;;;;;5037429;28;20048;-82
2023/12/20 01:35:18;;;;;;;16.55;2.20;;;;;;;;;;5036515;28;20045;-81
2023/12/20 01:37:45;;;;;;;20.02;2.05;;;;;;;;;;5020770;28;20128;-82
2023/12/20 01:40:12;;;;;;;11.80;2.08;;;;;;;;;;5020349;28;20357;-82
2023/12/20 01:42:39;;;;;;;13.18;1.90;;;;;;;;;;5037151;28;20041;-82
2023/12/20 01:45:06;;;;;;;22.33;2.10;;;;;;;;;;5019945;28;20052;-82
2023/12/20 01:47:33;;;;;;;13.40;1.50;;;;;;;;;;5020852;28;20067;-80
2023/12/20 01:50:03;;;;;;;11.25;1.75;;;;;;;;;;5020468;28;20045;-81
2023/12/20 01:52:31;;;;;;;12.80;1.92;;;;;;;;;;5036909;28;20056;-81
2023/12/20 01:55:02;;;;;;;12.63;2.47;;;;;;;;;;5020494;28;20475;-81
2023/12/20 01:57:30;;;;;;;16.13;1.83;;;;;;;;;;5020208;28;20048;-81
2023/12/20 01:59:57;;;;;;;13.40;2.15;;;;;;;;;;5020177;28;20490;-81
2023/12/20 02:02:27;;;;;;;13.43;1.58;;;;;;;;;;5019814;28;20099;-81
2023/12/20 02:04:54;;;;;;;12.95;2.10;;;;;;;;;;5020060;28;20055;-81
2023/12/20 02:07:22;;;;;;;13.93;2.28;;;;;;;;;;5019687;28;20077;-81
2023/12/20 02:09:50;;;;;;;12.02;2.08;;;;;;;;;;5036723;28;20037;-82
2023/12/20 02:12:17;;;;;;;14.18;1.70;;;;;;;;;;5019555;28;20508;-82
2023/12/20 02:14:43;;;;;;;16.73;2.13;;;;;;;;;;5036457;28;20052;-81
2023/12/20 02:17:10;;;;;;;14.93;2.10;;;;;;;;;;5036078;28;20045;-81
2023/12/20 02:19:37;;;;;;;16.85;1.88;;;;;;;;;;5036684;28;20048;-82
2023/12/20 02:22:13;;;;;;;20.05;2.22;;;;;;;;;;5035866;28;20049;-81
2023/12/20 02:24:40;;;;;;;18.08;2.30;;;;;;;;;;5036291;28;20053;-82
2023/12/20 02:27:07;;;;;;;16.08;2.22;;;;;;;;;;5019408;28;20080;-82
2023/12/20 02:29:35;;;;;;;16.88;2.40;;;;;;;;;;5019706;28;20463;-82
2023/12/20 02:32:02;;;;;;;14.95;2.05;;;;;;;;;;5019680;28;20051;-81
2023/12/20 02:34:29;;;;;;;16.80;1.98;;;;;;;;;;5019400;28;20045;-82
2023/12/20 02:36:56;;;;;;;14.55;1.80;;;;;;;;;;5019871;28;20048;-81
2023/12/20 02:39:23;;;;;;;12.23;1.48;;;;;;;;;;5019092;28;20053;-82
2023/12/20 02:41:50;;;;;;;17.65;2.10;;;;;;;;;;5019473;28;20040;-81
2023/12/20 02:44:16;;;;;;;22.00;2.50;;;;;;;;;;5019300;28;20048;-81
2023/12/20 02:46:43;;;;;;;13.55;1.73;;;;;;;;;;5019238;28;20048;-82
2023/12/20 02:49:10;;;;;;;23.02;2.60;;;;;;;;;;5018949;28;20056;-81
2023/12/20 02:51:40;;;;;;;21.73;2.53;;;;;;;;;;5019541;28;20459;-83
2023/12/20 02:54:07;;;;;;;19.83;2.22;;;;;;;;;;5034841;28;20044;-81
2023/12/20 02:56:33;;;;;;;21.88;3.03;;;;;;;;;;5035718;28;20136;-81
2023/12/20 02:59:01;;;;;;;15.85;2.25;;;;;;;;;;5019275;28;20051;-82
2023/12/20 03:01:29;;;;;;;11.38;2.08;;;;;;;;;;5018735;28;20371;-82
2023/12/20 03:03:56;;;;;;;16.75;2.25;;;;;;;;;;5018927;28;20049;-81
2023/12/20 03:06:23;;;;;;;16.60;2.65;;;;;;;;;;5018631;28;20043;-82
2023/12/20 03:08:49;;;;;;;14.18;2.53;;;;;;;;;;5019216;28;20403;-82
2023/12/20 03:11:16;;;;;;;20.50;2.40;;;;;;;;;;5015019;28;20053;-82
2023/12/20 03:13:43;;;;;;;18.25;2.50;;;;;;;;;;4998935;28;20399;-81
2023/12/20 03:16:11;;;;;;;13.32;3.25;;;;;;;;;;4998782;28;20041;-82
2023/12/20 03:18:37;;;;;;;21.48;2.50;;;;;;;;;;5015747;28;20052;-82
2023/12/20 03:21:05;;;;;;;17.10;2.38;;;;;;;;;;5032863;28;20048;-80
2023/12/20 03:23:33;;;;;;;17.48;2.75;;;;;;;;;;5019737;28;20051;-81
2023/12/20 03:26:00;;;;;;;15.43;3.10;;;;;;;;;;5018791;28;20529;-82
2023/12/20 03:28:28;;;;;;;15.73;2.22;;;;;;;;;;5018354;28;20049;-83
2023/12/20 03:30:55;;;;;;;22.60;2.72;;;;;;;;;;5018770;28;20484;-82
2023/12/20 03:33:22;;;;;;;15.82;2.45;;;;;;;;;;5018125;28;20044;-82
2023/12/20 03:35:49;;;;;;;21.17;2.60;;;;;;;;;;5035383;28;20041;-82
2023/12/20 03:38:16;;;;;;;15.45;1.95;;;;;;;;;;5034514;28;20041;-82
2023/12/20 03:40:42;;;;;;;17.83;1.83;;;;;;;;;;5052977;28;20037;-82
2023/12/20 03:43:09;;;;;;;13.80;2.92;;;;;;;;;;5018074;28;20064;-82
2023/12/20 03:45:36;;;;;;;16.90;2.17;;;;;;;;;;5018402;28;20048;-81
2023/12/20 03:48:03;;;;;;;18.88;2.10;;;;;;;;;;5018661;28;20045;-81
2023/12/20 03:50:30;;;;;;;19.40;2.85;;;;;;;;;;5034327;28;20045;-81
2023/12/20 03:52:57;;;;;;;24.48;2.78;;;;;;;;;;5034806;28;20045;-81
2023/12/20 03:55:24;;;;;;;17.17;2.47;;;;;;;;;;5017964;28;20049;-81
2023/12/20 03:57:50;;;;;;;24.40;3.30;;;;;;;;;;5018440;28;20072;-81
2023/12/20 04:00:18;;;;;;;15.70;2.22;;;;;;;;;;5018019;28;20037;-81
2023/12/20 04:02:44;;;;;;;20.95;2.85;;;;;;;;;;5018495;28;20167;-81
2023/12/20 04:05:11;;;;;;;19.77;2.50;;;;;;;;;;5034140;28;20124;-82
2023/12/20 04:07:38;;;;;;;14.10;2.92;;;;;;;;;;5002354;28;20072;-82
2023/12/20 04:10:06;;;;;;;20.30;3.00;;;;;;;;;;5034087;28;20053;-81
2023/12/20 04:12:33;;;;;;;26.38;2.92;;;;;;;;;;5001994;28;20129;-82
2023/12/20 04:15:00;;;;;;;14.35;1.98;;;;;;;;;;5034744;28;20045;-82
2023/12/20 04:17:26;;;;;;;22.98;3.25;;;;;;;;;;5017616;28;20365;-82
2023/12/20 04:19:53;;;;;;;20.73;2.97;;;;;;;;;;5018153;28;20487;-82
2023/12/20 04:22:20;;;;;;;21.15;3.17;;;;;;;;;;5017750;28;20365;-83
2023/12/20 04:24:47;;;;;;;16.60;2.92;;;;;;;;;;5018214;28;20053;-82
2023/12/20 04:27:14;;;;;;;19.02;2.60;;;;;;;;;;5004499;28;20094;-82
2023/12/20 04:29:40;;;;;;;18.85;3.55;;;;;;;;;;5038705;28;20384;-81
2023/12/20 04:32:07;;;;;;;25.70;2.95;;;;;;;;;;5021727;28;20037;-81
2023/12/20 04:34:34;;;;;;;22.65;2.95;;;;;;;;;;5022306;28;20049;-81
2023/12/20 04:37:01;;;;;;;14.63;2.58;;;;;;;;;;5056148;28;20395;-82
2023/12/20 04:39:28;;;;;;;21.33;2.55;;;;;;;;;;5021224;28;20415;-81
2023/12/20 04:41:55;;;;;;;20.65;2.28;;;;;;;;;;5021940;28;20056;-82
2023/12/20 04:44:22;;;;;;;20.05;3.70;;;;;;;;;;5021274;28;20055;-82
2023/12/20 04:46:49;;;;;;;22.00;2.63;;;;;;;;;;5038305;28;20049;-81
2023/12/20 04:49:16;;;;;;;27.23;3.22;;;;;;;;;;5021273;28;20510;-82
2023/12/20 04:51:43;;;;;;;15.52;2.38;;;;;;;;;;5021834;28;20045;-81
2023/12/20 04:54:10;;;;;;;20.58;3.40;;;;;;;;;;5021083;28;20048;-81
2023/12/20 04:56:37;;;;;;;15.93;2.63;;;;;;;;;;5038035;28;20055;-81
2023/12/20 04:59:04;;;;;;;26.88;3.95;;;;;;;;;;5021496;28;20045;-82
2023/12/20 05:01:30;;;;;;;14.80;2.63;;;;;;;;;;5021085;28;20059;-82
2023/12/20 05:03:57;;;;;;;19.23;3.30;;;;;;;;;;5021382;28;20044;-82
2023/12/20 05:06:24;;;;;;;20.83;3.03;;;;;;;;;;5021000;28;20063;-82
2023/12/20 05:08:51;;;;;;;23.00;3.03;;;;;;;;;;5021482;28;20047;-81
2023/12/20 05:11:18;;;;;;;21.15;3.08;;;;;;;;;;5036687;28;20049;-82
2023/12/20 05:13:44;;;;;;;18.65;2.85;;;;;;;;;;5021246;28;20048;-82
2023/12/20 05:16:17;;;;;;;17.70;2.90;;;;;;;;;;5021420;28;20440;-82
2023/12/20 05:18:46;;;;;;;22.63;2.40;;;;;;;;;;5055356;28;20393;-81
2023/12/20 05:21:13;;;;;;;23.63;3.42;;;;;;;;;;5020398;28;20045;-82
2023/12/20 05:23:40;;;;;;;25.75;3.75;;;;;;;;;;5021081;28;20041;-82
2023/12/20 05:26:07;;;;;;;26.92;4.13;;;;;;;;;;5020363;28;20045;-82
2023/12/20 05:28:34;;;;;;;20.00;2.88;;;;;;;;;;5020997;28;20071;-81
2023/12/20 05:31:00;;;;;;;28.27;4.53;;;;;;;;;;5020922;28;20049;-83
2023/12/20 05:33:27;;;;;;;29.35;4.97;;;;;;;;;;5020296;28;20051;-81
2023/12/20 05:35:54;;;;;;;18.30;2.72;;;;;;;;;;5037014;28;20037;-82
2023/12/20 05:38:21;;;;;;;29.10;3.65;;;;;;;;;;5020046;28;20048;-81
2023/12/20 05:40:48;;;;;;;24.58;3.85;;;;;;;;;;5020587;28;20047;-81
2023/12/20 05:43:14;;;;;;;23.70;3.40;;;;;;;;;;5020143;28;20468;-82
2023/12/20 05:45:42;;;;;;;23.73;4.35;;;;;;;;;;5020581;28;20091;-82
2023/12/20 05:48:09;;;;;;;22.20;3.50;;;;;;;;;;5019997;28;20545;-82
2023/12/20 05:50:36;;;;;;;24.92;3.30;;;;;;;;;;5036791;28;20049;-84
2023/12/20 05:53:03;;;;;;;28.98;3.47;;;;;;;;;;5020785;28;20041;-82
2023/12/20 05:55:30;;;;;;;30.85;3.35;;;;;;;;;;5020346;28;20053;-83
2023/12/20 05:57:57;;;;;;;28.63;3.40;;;;;;;;;;5020312;28;20055;-83
2023/12/20 06:00:25;;;;;;;29.85;3.72;;;;;;;;;;5020053;28;20111;-82
2023/12/20 06:02:51;;;;;;;28.33;3.80;;;;;;;;;;5020305;28;20083;-83
2023/12/20 06:05:18;;;;;;;20.75;3.25;;;;;;;;;;5019670;28;20044;-83
2023/12/20 06:07:48;;;;;;;20.98;2.65;;;;;;;;;;5036832;28;20474;-82
2023/12/20 06:10:15;;;;;;;27.98;3.67;;;;;;;;;;5019493;28;20091;-82
2023/12/20 06:12:42;;;;;;;19.88;3.38;;;;;;;;;;5020153;28;20490;-83
2023/12/20 06:15:09;;;;;;;20.73;3.88;;;;;;;;;;5036233;28;20083;-82
2023/12/20 06:17:36;;;;;;;22.60;3.10;;;;;;;;;;5020187;28;20468;-82
2023/12/20 06:20:26;;;;;;;23.73;2.88;;;;;;;;;;5039628;28;20444;-82
2023/12/20 06:22:53;;;;;;;26.55;3.70;;;;;;;;;;5019867;28;20313;-82
2023/12/20 06:25:20;;;;;;;22.38;3.20;;;;;;;;;;5019311;28;20442;-82
2023/12/20 06:27:47;;;;;;;13.13;2.17;;;;;;;;;;5019805;28;20045;-82
2023/12/20 06:30:15;;;;;;;16.45;3.05;;;;;;;;;;5019248;28;20083;-83
2023/12/20 06:32:42;;;;;;;25.88;3.45;;;;;;;;;;5019681;28;20502;-83
2023/12/20 06:35:09;;;;;;;19.10;2.97;;;;;;;;;;5018894;28;20091;-82
2023/12/20 06:37:36;;;;;;;21.27;2.42;;;;;;;;;;5019566;28;20049;-83
2023/12/20 06:40:03;;;;;;;18.98;2.42;;;;;;;;;;5019590;28;20480;-82
2023/12/20 06:42:30;;;;;;;23.15;3.25;;;;;;;;;;5018859;28;20040;-82
2023/12/20 06:45:00;;;;;;;26.20;4.32;;;;;;;;;;5024077;28;20045;-82
2023/12/20 06:47:27;;;;;;;18.88;2.20;;;;;;;;;;5011345;28;20068;-82
2023/12/20 06:49:54;;;;;;;27.10;3.33;;;;;;;;;;5025846;28;20141;-83
2023/12/20 06:52:21;;;;;;;19.52;2.50;;;;;;;;;;5024757;28;20424;-83
2023/12/20 06:54:48;;;;;;;25.85;4.00;;;;;;;;;;5007757;28;20041;-82
2023/12/20 06:57:15;;;;;;;25.95;2.67;;;;;;;;;;5008964;28;20124;-83
2023/12/20 06:59:42;;;;;;;32.78;3.85;;;;;;;;;;5010328;28;20376;-82
2023/12/20 07:02:09;;;;;;;20.38;3.63;;;;;;;;;;5011666;28;20053;-81
2023/12/20 07:04:41;;;;;;;25.13;4.00;;;;;;;;;;5014943;28;20055;-82
2023/12/20 07:07:08;;;;;;;24.02;3.35;;;;;;;;;;5003462;28;20051;-81
2023/12/20 07:09:35;;;;;;;27.02;3.22;;;;;;;;;;5015980;28;20448;-82
2023/12/20 07:12:02;;;;;;;22.75;3.80;;;;;;;;;;5017914;28;20063;-82
2023/12/20 07:14:29;;;;;;;28.85;3.67;;;;;;;;;;5011330;28;20129;-83
2023/12/20 07:16:56;;;;;;;25.67;3.05;;;;;;;;;;5024827;28;20040;-83
2023/12/20 07:19:22;;;;;;;27.98;4.43;;;;;;;;;;5007697;28;20053;-82
2023/12/20 07:21:49;;;;;;;24.75;3.03;;;;;;;;;;5015232;28;20132;-82
2023/12/20 07:24:16;;;;;;;17.83;3.10;;;;;;;;;;5006900;28;20498;-82
2023/12/20 07:26:43;;;;;;;19.23;3.03;;;;;;;;;;5018018;28;20060;-81
2023/12/20 07:29:10;;;;;;;28.77;3.38;;;;;;;;;;5033921;28;20037;-81
2023/12/20 07:31:36;;;;;;;24.38;2.97;;;;;;;;;;5051021;28;20256;-81
2023/12/20 07:34:03;;;;;;;23.05;4.10;;;;;;;;;;5032571;28;20052;-82
2023/12/20 07:36:30;;;;;;;22.58;3.15;;;;;;;;;;5015569;28;20079;-82
2023/12/20 07:38:57;;;;;;;17.33;3.35;;;;;;;;;;5016094;28;20048;-82
2023/12/20 07:41:24;;;;;;;20.88;2.75;;;;;;;;;;5015659;28;20419;-82
2023/12/20 07:43:51;;;;;;;17.38;2.88;;;;;;;;;;5016263;28;20550;-82
2023/12/20 07:46:22;;;;;;;24.58;3.28;;;;;;;;;;5015223;28;20060;-82
2023/12/20 07:48:49;;;;;;;20.52;4.13;;;;;;;;;;5018153;28;20049;-81
2023/12/20 07:51:16;;;;;;;18.30;2.95;;;;;;;;;;5017384;28;20040;-81
2023/12/20 07:53:43;;;;;;;20.08;2.95;;;;;;;;;;5001002;28;20037;-82
2023/12/20 07:56:19;;;;;;;21.00;2.55;;;;;;;;;;5017958;28;20045;-81
2023/12/20 07:58:48;;;;;;;19.48;2.90;;;;;;;;;;5018043;28;20049;-82
2023/12/20 08:01:19;;;;;;;22.50;2.90;;;;;;;;;;5018051;28;20075;-83
2023/12/20 08:03:48;;;;;;;23.02;3.38;;;;;;;;;;5017948;28;20041;-81
2023/12/20 08:06:17;;;;;;;22.40;3.55;;;;;;;;;;5001282;28;20052;-82
2023/12/20 08:08:45;;;;;;;20.60;3.08;;;;;;;;;;5018481;28;20143;-81
2023/12/20 08:11:20;;;;;;;23.48;3.38;;;;;;;;;;5014114;28;20431;-81
2023/12/20 08:13:47;;;;;;;22.63;2.63;;;;;;;;;;4993569;28;20068;-81
2023/12/20 08:16:15;;;;;;;19.25;2.65;;;;;;;;;;5017532;28;20128;-81
2023/12/20 08:18:42;;;;;;;27.58;3.10;;;;;;;;;;5034202;28;20048;-81
2023/12/20 08:21:09;;;;;;;22.35;3.10;;;;;;;;;;5033372;28;20041;-82
2023/12/20 08:23:36;;;;;;;19.25;2.80;;;;;;;;;;5034471;28;20041;-82
2023/12/20 08:26:09;;;;;;;23.25;3.20;;;;;;;;;;5017743;28;20124;-81
2023/12/20 08:28:37;;;;;;;23.98;3.20;;;;;;;;;;5017371;28;20037;-81
2023/12/20 08:31:04;;;;;;;21.27;2.30;;;;;;;;;;5017644;28;20119;-81
2023/12/20 08:33:31;;;;;;;19.77;2.78;;;;;;;;;;5034248;28;20475;-81
2023/12/20 08:35:58;;;;;;;20.00;3.67;;;;;;;;;;5001441;28;20057;-81
2023/12/20 08:38:24;;;;;;;21.00;2.85;;;;;;;;;;5017177;28;20337;-81
2023/12/20 08:40:51;;;;;;;17.25;2.55;;;;;;;;;;5033465;28;20415;-81
2023/12/20 08:43:18;;;;;;;17.42;2.95;;;;;;;;;;5016868;28;20499;-82
2023/12/20 08:45:45;;;;;;;13.95;2.40;;;;;;;;;;5033377;28;20045;-82
2023/12/20 08:48:12;;;;;;;15.10;2.58;;;;;;;;;;5033437;28;20041;-80
2023/12/20 08:50:38;;;;;;;23.27;2.70;;;;;;;;;;5034199;28;20053;-81
2023/12/20 08:53:06;;;;;;;20.23;2.85;;;;;;;;;;5016061;28;20045;-81
2023/12/20 08:55:32;;;;;;;14.95;2.25;;;;;;;;;;5034039;28;20052;-80
2023/12/20 08:57:59;;;;;;;18.70;3.03;;;;;;;;;;5016945;28;20049;-81
2023/12/20 09:00:27;;;;;;;19.50;2.97;;;;;;;;;;5032673;28;20128;-80
2023/12/20 09:02:54;;;;;;;14.48;3.28;;;;;;;;;;5030498;28;20069;-81
2023/12/20 09:05:22;;;;;;;17.80;2.72;;;;;;;;;;5016902;28;20099;-81
2023/12/20 09:07:49;;;;;;;19.33;3.20;;;;;;;;;;5033139;28;20057;-81
2023/12/20 09:10:21;;;;;;;19.08;2.67;;;;;;;;;;5017056;28;20038;-82
2023/12/20 09:12:51;;;;;;;17.42;2.72;;;;;;;;;;5035290;28;20067;-81
2023/12/20 09:15:17;;;;;;;18.65;2.70;;;;;;;;;;5020207;28;20540;-82
2023/12/20 09:17:44;;;;;;;21.98;2.58;;;;;;;;;;5020507;28;20111;-80
2023/12/20 09:20:13;;;;;;;19.58;2.78;;;;;;;;;;5016954;28;20047;-80
2023/12/20 09:22:41;;;;;;;;;;;;;;;;;;5022335;28;20041;-80
2023/12/20 09:25:10;;;;;;;22.08;2.85;;;;;;;;;;5019586;28;19927;-82
2023/12/20 09:27:37;;;;;;;21.83;2.95;;;;;;;;;;5019443;28;20091;-80
2023/12/20 09:30:05;;;;;;;24.58;3.88;;;;;;;;;;5037319;28;20103;-81
2023/12/20 09:32:32;;;;;;;27.25;4.53;;;;;;;;;;5019541;28;20052;-82
2023/12/20 09:34:59;;;;;;;22.95;2.88;;;;;;;;;;5020979;28;20468;-82
2023/12/20 09:37:27;;;;;;;21.23;3.13;;;;;;;;;;5020235;28;20041;-81
2023/12/20 09:39:54;;;;;;;26.25;4.05;;;;;;;;;;5020888;28;20037;-83
2023/12/20 09:42:29;;;;;;;21.80;3.40;;;;;;;;;;5036953;28;20044;-82
2023/12/20 09:45:00;;;;;;;18.33;3.28;;;;;;;;;;5020652;28;20094;-82
2023/12/20 09:47:27;;;;;;;21.88;2.65;;;;;;;;;;5019908;28;20080;-82
2023/12/20 09:49:54;;;;;;;22.98;2.33;;;;;;;;;;5004325;28;20471;-81
2023/12/20 09:52:23;;;;;;;22.13;3.47;;;;;;;;;;5036337;28;20545;-83
2023/12/20 09:54:53;;;;;;;15.63;2.38;;;;;;;;;;5036774;28;20372;-83
2023/12/20 09:57:20;;;;;;;23.00;3.25;;;;;;;;;;5019785;28;20388;-82
2023/12/20 09:59:46;;;;;;;17.50;3.35;;;;;;;;;;5020166;28;20041;-82
2023/12/20 10:02:16;;;;;;;20.25;2.72;;;;;;;;;;5019950;28;20056;-82
2023/12/20 10:04:50;;;;;;;24.90;2.65;;;;;;;;;;5019996;28;20076;-82
2023/12/20 10:07:17;;;;;;;26.20;3.00;;;;;;;;;;5019570;28;20041;-82
2023/12/20 10:09:44;;;;;;;16.65;2.90;;;;;;;;;;5016632;28;20096;-82
2023/12/20 10:12:11;;;;;;;27.52;3.20;;;;;;;;;;5015572;28;20056;-82
2023/12/20 10:14:39;;;;;;;22.60;3.20;;;;;;;;;;5016632;28;20046;-81
2023/12/20 10:17:06;;;;;;;25.08;4.40;;;;;;;;;;4999986;28;20067;-82
2023/12/20 10:19:33;;;;;;;25.02;3.95;;;;;;;;;;5016645;28;20119;-82
2023/12/20 10:22:00;;;;;;;20.25;3.20;;;;;;;;;;5016588;28;20052;-82
2023/12/20 10:24:30;;;;;;;29.88;3.70;;;;;;;;;;5006799;28;20092;-81
2023/12/20 10:27:06;;;;;;;19.58;2.80;;;;;;;;;;5000094;28;20052;-81
2023/12/20 10:29:35;;;;;;;22.42;3.45;;;;;;;;;;5032786;28;20068;-82
2023/12/20 10:32:25;;;;;;;17.55;2.60;;;;;;;;;;5032134;28;20075;-81
2023/12/20 10:34:54;;;;;;;23.63;2.45;;;;;;;;;;5000188;28;20041;-82
2023/12/20 10:37:21;;;;;;;14.13;2.72;;;;;;;;;;5016006;28;20096;-82
2023/12/20 10:39:55;;;;;;;20.35;3.40;;;;;;;;;;4999835;28;20553;-81
2023/12/20 10:42:26;;;;;;;27.23;2.80;;;;;;;;;;5015826;28;22349;-81
2023/12/20 10:44:53;;;;;;;20.40;3.60;;;;;;;;;;5003993;28;20053;-81
2023/12/20 10:47:21;;;;;;;16.98;2.90;;;;;;;;;;5019098;28;20045;-82
2023/12/20 10:49:48;;;;;;;18.02;2.22;;;;;;;;;;5035645;28;20045;-82
2023/12/20 10:52:16;;;;;;;22.30;2.65;;;;;;;;;;5019037;28;20383;-82
2023/12/20 10:54:45;;;;;;;17.33;3.00;;;;;;;;;;5019354;28;20098;-81
2023/12/20 10:57:12;;;;;;;21.15;2.75;;;;;;;;;;5035308;28;20064;-81
2023/12/20 10:59:39;;;;;;;26.67;3.17;;;;;;;;;;5019318;28;20048;-81
2023/12/20 11:02:06;;;;;;;19.75;2.95;;;;;;;;;;5018720;28;20056;-82
2023/12/20 11:05:12;;;;;;;14.27;2.35;;;;;;;;;;5018687;28;20052;-81
2023/12/20 11:07:46;;;;;;;15.48;1.70;;;;;;;;;;4920920;29;20051;-82
2023/12/20 11:10:56;;;;;;;15.57;2.50;;;;;;;;;;4952304;28;20086;-82
2023/12/20 11:13:31;;;;;;;11.13;1.70;;;;;;;;;;4920262;28;20487;-82
2023/12/20 11:15:59;;;;;;;13.15;2.33;;;;;;;;;;4952606;28;20195;-81
2023/12/20 11:18:30;;;;;;;16.58;1.70;;;;;;;;;;4936249;28;20051;-82
2023/12/20 11:21:05;;;;;;;5.80;1.08;;;;;;;;;;4952994;28;20047;-81
2023/12/20 11:23:35;;;;;;;11.23;1.70;;;;;;;;;;4936343;29;20098;-81
2023/12/20 11:26:03;;;;;;;11.40;1.95;;;;;;;;;;4921066;29;20043;-82
2023/12/20 11:28:29;;;;;;;17.02;2.22;;;;;;;;;;4920858;29;20382;-82
2023/12/20 11:31:00;;;;;;;10.95;1.45;;;;;;;;;;4921103;29;20482;-81
2023/12/20 11:33:31;;;;;;;15.18;1.95;;;;;;;;;;4936184;29;20050;-82
2023/12/20 11:36:00;;;;;;;17.83;2.33;;;;;;;;;;4936430;29;20043;-82
2023/12/20 11:38:27;;;;;;;12.88;2.08;;;;;;;;;;4936272;29;20078;-82
2023/12/20 11:40:56;;;;;;;11.73;1.70;;;;;;;;;;4953539;28;20052;-82
2023/12/20 11:43:35;;;;;;;15.90;1.90;;;;;;;;;;5018046;28;20045;-82
2023/12/20 11:46:06;;;;;;;15.52;2.40;;;;;;;;;;5015032;28;20499;-82
2023/12/20 11:48:40;;;;;;;19.65;2.67;;;;;;;;;;5014857;28;20064;-85
2023/12/20 11:51:11;;;;;;;13.90;1.80;;;;;;;;;;5014827;28;20125;-81
2023/12/20 11:53:38;;;;;;;13.10;1.90;;;;;;;;;;5047706;28;20041;-81
2023/12/20 11:56:08;;;;;;;17.40;2.47;;;;;;;;;;5012422;28;20068;-79
2023/12/20 11:58:35;;;;;;;19.88;2.47;;;;;;;;;;5051043;28;20049;-81
2023/12/20 12:01:04;;;;;;;19.08;2.22;;;;;;;;;;5031726;28;20045;-82
2023/12/20 12:03:31;;;;;;;;;;;;;;;;;;5007034;28;20128;-80
2023/12/20 12:05:58;;;;;;;23.25;2.90;;;;;;;;;;5011035;28;19925;-82
2023/12/20 12:08:25;;;;;;;20.75;2.70;;;;;;;;;;5004703;28;20050;-82
2023/12/20 12:10:51;;;;;;;19.90;3.25;;;;;;;;;;5008385;28;20064;-82
2023/12/20 12:13:20;;;;;;;17.45;2.13;;;;;;;;;;5008490;28;20053;-81
2023/12/20 12:15:48;;;;;;;15.45;2.25;;;;;;;;;;5024698;28;20047;-81
2023/12/20 12:18:18;;;;;;;19.05;1.92;;;;;;;;;;5004312;28;20093;-81
2023/12/20 12:20:45;;;;;;;18.77;3.00;;;;;;;;;;5004663;28;20056;-83
2023/12/20 12:23:12;;;;;;;17.90;2.47;;;;;;;;;;5010194;28;20046;-82
2023/12/20 12:25:40;;;;;;;14.25;1.80;;;;;;;;;;5009682;28;20069;-82
2023/12/20 12:28:10;;;;;;;20.83;2.78;;;;;;;;;;4993144;28;20472;-82
2023/12/20 12:30:37;;;;;;;21.57;2.00;;;;;;;;;;5010570;28;20050;-82
2023/12/20 12:33:12;;;;;;;20.88;2.47;;;;;;;;;;4995798;28;20389;-82
2023/12/20 12:35:40;;;;;;;17.27;2.22;;;;;;;;;;5011207;28;20420;-82
2023/12/20 12:38:08;;;;;;;19.42;2.30;;;;;;;;;;5010746;28;20065;-82
2023/12/20 12:40:36;;;;;;;19.65;2.10;;;;;;;;;;4995360;28;20114;-81
2023/12/20 12:43:04;;;;;;;13.93;1.92;;;;;;;;;;4995435;28;20417;-81
2023/12/20 12:45:31;;;;;;;11.70;1.87;;;;;;;;;;5011141;28;20049;-81
2023/12/20 12:47:58;;;;;;;9.77;1.73;;;;;;;;;;5015207;28;20092;-81
2023/12/20 12:50:24;;;;;;;13.88;1.67;;;;;;;;;;5000110;28;21536;-81
2023/12/20 12:52:51;;;;;;;12.93;2.00;;;;;;;;;;4999996;28;20136;-82
2023/12/20 12:55:18;;;;;;;15.95;1.60;;;;;;;;;;4995480;28;20042;-81
2023/12/20 12:57:45;;;;;;;12.00;2.33;;;;;;;;;;4998885;28;20492;-82
2023/12/20 13:00:13;;;;;;;14.65;1.38;;;;;;;;;;5025951;28;20096;-82
2023/12/20 13:02:43;;;;;;;22.38;2.10;;;;;;;;;;5015057;28;20046;-82
2023/12/20 13:05:10;;;;;;;13.30;2.10;;;;;;;;;;5006803;28;20048;-87
2023/12/20 13:07:37;;;;;;;13.93;1.65;;;;;;;;;;5000399;28;20049;-81
2023/12/20 13:10:05;;;;;;;13.82;1.60;;;;;;;;;;5033181;28;20112;-82
2023/12/20 13:12:32;;;;;;;13.75;1.67;;;;;;;;;;5033363;28;20476;-81
2023/12/20 13:14:59;;;;;;;13.77;1.70;;;;;;;;;;5035034;28;20133;-81
2023/12/20 13:17:26;;;;;;;20.80;2.15;;;;;;;;;;5032909;28;20069;-81
2023/12/20 13:19:55;;;;;;;15.45;2.15;;;;;;;;;;5033653;28;20095;-81
2023/12/20 13:22:23;;;;;;;17.13;2.85;;;;;;;;;;5032570;28;20087;-81
2023/12/20 13:24:50;;;;;;;19.23;2.50;;;;;;;;;;5016778;28;20034;-81
2023/12/20 13:27:17;;;;;;;12.55;1.70;;;;;;;;;;5032388;28;20073;-81
2023/12/20 13:29:44;;;;;;;13.82;1.70;;;;;;;;;;5018300;28;20036;-81
2023/12/20 13:32:11;;;;;;;11.32;1.70;;;;;;;;;;5005648;28;20066;-82
2023/12/20 13:34:38;;;;;;;9.38;1.55;;;;;;;;;;5028262;28;20104;-81
2023/12/20 13:37:05;;;;;;;12.75;1.30;;;;;;;;;;5015761;28;20072;-82
2023/12/20 13:39:32;;;;;;;10.80;1.70;;;;;;;;;;5007827;28;20037;-82
2023/12/20 13:41:58;;;;;;;9.52;1.55;;;;;;;;;;5009734;28;20045;-83
2023/12/20 13:44:27;;;;;;;11.30;1.67;;;;;;;;;;5033365;28;20041;-81
2023/12/20 13:46:54;;;;;;;6.60;1.48;;;;;;;;;;5017505;28;20060;-81
2023/12/20 13:49:21;;;;;;;13.82;1.50;;;;;;;;;;5033111;28;20048;-81
2023/12/20 13:51:48;;;;;;;13.82;3.05;;;;;;;;;;5034746;28;20068;-81
2023/12/20 13:54:16;;;;;;;12.20;1.48;;;;;;;;;;5034021;28;20427;-81
2023/12/20 13:56:43;;;;;;;10.15;0.98;;;;;;;;;;5033586;28;20049;-82
2023/12/20 13:59:28;;;;;;;8.50;1.10;;;;;;;;;;5018495;28;20049;-82
2023/12/20 14:01:56;;;;;;;8.57;1.00;;;;;;;;;;5033273;28;20049;-81
2023/12/20 14:04:23;;;;;;;4.00;0.82;;;;;;;;;;5016298;28;20049;-81
2023/12/20 14:07:10;;;;;;;9.32;1.20;;;;;;;;;;5018956;28;20136;-80
2023/12/20 14:09:38;;;;;;;7.68;1.30;;;;;;;;;;5011162;28;20071;-81
2023/12/20 14:12:06;;;;;;;11.18;1.90;;;;;;;;;;5004952;28;20488;-80
2023/12/20 14:14:32;;;;;;;12.43;1.98;;;;;;;;;;5007444;28;20040;-81
2023/12/20 14:16:59;;;;;;;10.80;1.77;;;;;;;;;;4997071;28;20093;-80
2023/12/20 14:19:26;;;;;;;17.17;4.43;;;;;;;;;;5017562;28;20045;-81
2023/12/20 14:21:53;;;;;;;22.85;7.10;;;;;;;;;;5007628;28;20046;-81
2023/12/20 14:24:20;;;;;;;23.40;7.25;;;;;;;;;;5016127;28;20174;-81
2023/12/20 14:26:47;;;;;;;17.00;6.75;;;;;;;;;;5032911;28;20049;-81
2023/12/20 14:29:13;;;;;;;8.00;1.90;;;;;;;;;;5030248;28;20045;-81
2023/12/20 14:31:40;;;;;;;6.68;1.30;;;;;;;;;;5023427;28;20148;-81
2023/12/20 14:34:08;;;;;;;5.10;0.95;;;;;;;;;;5005242;28;20088;-80
2023/12/20 14:36:35;;;;;;;6.45;0.80;;;;;;;;;;5023402;28;20038;-80